createdAt,value
2022-12-28T00:00:07.700Z,2.10
2022-12-28T00:01:07.537Z,2.20
2022-12-28T00:02:07.594Z,2.20
2022-12-28T00:03:07.560Z,2.40
2022-12-28T00:04:07.429Z,2.60
2022-12-28T00:06:07.313Z,2.40
2022-12-28T00:07:07.308Z,2.00
2022-12-28T00:08:07.333Z,2.00
2022-12-28T00:09:07.198Z,2.30
2022-12-28T00:10:07.280Z,2.30
2022-12-28T00:11:11.384Z,2.50
2022-12-28T00:12:07.085Z,2.20
2022-12-28T00:13:07.074Z,2.30
2022-12-28T00:14:07.063Z,2.00
2022-12-28T00:15:07.041Z,2.70
2022-12-28T00:16:07.007Z,2.20
2022-12-28T00:17:06.929Z,2.00
2022-12-28T00:18:06.923Z,1.90
2022-12-28T00:19:06.803Z,2.00
2022-12-28T00:20:06.805Z,2.10
2022-12-28T00:21:06.808Z,1.90
2022-12-28T00:22:06.684Z,2.20
2022-12-28T00:23:06.687Z,2.00
2022-12-28T00:24:06.594Z,2.10
2022-12-28T00:25:06.568Z,2.20
2022-12-28T00:26:06.570Z,1.90
2022-12-28T00:27:06.454Z,2.10
2022-12-28T00:28:06.452Z,2.70
2022-12-28T00:29:06.335Z,2.00
2022-12-28T00:30:06.340Z,2.00
2022-12-28T00:31:06.333Z,2.10
2022-12-28T00:32:06.426Z,2.10
2022-12-28T00:33:06.218Z,2.60
2022-12-28T00:34:06.102Z,2.00
2022-12-28T00:35:06.098Z,2.10
2022-12-28T00:36:06.101Z,2.70
2022-12-28T00:37:08.483Z,2.10
2022-12-28T00:38:05.980Z,2.20
2022-12-28T00:39:05.871Z,2.60
2022-12-28T00:40:06.006Z,2.50
2022-12-28T00:41:05.861Z,2.20
2022-12-28T00:42:05.764Z,2.20
2022-12-28T00:43:05.758Z,1.60
2022-12-28T00:44:05.755Z,2.40
2022-12-28T00:45:05.635Z,2.20
2022-12-28T00:46:05.671Z,2.30
2022-12-28T00:47:05.751Z,2.30
2022-12-28T00:48:05.752Z,2.30
2022-12-28T00:50:37.435Z,2.30
2022-12-28T00:51:37.316Z,1.90
2022-12-28T00:52:37.572Z,2.30
2022-12-28T00:53:37.317Z,2.90
2022-12-28T00:54:37.080Z,2.20
2022-12-28T00:55:36.989Z,2.40
2022-12-28T00:56:36.844Z,2.40
2022-12-28T00:57:36.845Z,2.30
2022-12-28T00:58:36.852Z,2.60
2022-12-28T00:59:36.723Z,2.10
2022-12-28T01:00:36.728Z,2.50
2022-12-28T01:01:36.745Z,2.30
2022-12-28T01:02:36.667Z,2.00
2022-12-28T01:03:36.609Z,2.60
2022-12-28T01:04:36.490Z,2.00
2022-12-28T01:05:36.494Z,2.20
2022-12-28T01:06:36.387Z,2.60
2022-12-28T01:07:36.378Z,2.20
2022-12-28T01:08:36.373Z,2.30
2022-12-28T01:09:36.261Z,2.30
2022-12-28T01:10:36.261Z,1.90
2022-12-28T01:11:36.161Z,2.10
2022-12-28T01:12:38.222Z,2.30
2022-12-28T01:13:36.144Z,2.00
2022-12-28T01:14:36.026Z,1.90
2022-12-28T01:15:36.022Z,2.30
2022-12-28T01:16:35.961Z,2.20
2022-12-28T01:17:35.903Z,1.90
2022-12-28T01:18:35.907Z,2.30
2022-12-28T01:19:35.904Z,2.20
2022-12-28T01:20:35.785Z,2.70
2022-12-28T01:21:35.684Z,2.20
2022-12-28T01:22:35.685Z,2.20
2022-12-28T01:23:35.692Z,2.30
2022-12-28T01:24:35.564Z,2.30
2022-12-28T01:25:35.589Z,2.20
2022-12-28T01:26:35.445Z,2.30
2022-12-28T01:27:35.463Z,2.30
2022-12-28T01:28:35.446Z,2.10
2022-12-28T01:29:35.315Z,2.20
2022-12-28T01:30:35.314Z,2.60
2022-12-28T01:31:35.347Z,2.20
2022-12-28T01:32:35.198Z,2.50
2022-12-28T01:33:35.205Z,2.20
2022-12-28T01:34:35.077Z,2.50
2022-12-28T01:35:35.080Z,2.10
2022-12-28T01:36:35.016Z,2.40
2022-12-28T01:37:34.960Z,2.40
2022-12-28T01:38:34.964Z,2.30
2022-12-28T01:39:34.844Z,2.40
2022-12-28T01:40:34.780Z,2.20
2022-12-28T01:41:34.660Z,2.30
2022-12-28T01:42:34.666Z,2.30
2022-12-28T01:43:34.701Z,2.00
2022-12-28T01:44:34.541Z,2.20
2022-12-28T01:45:34.590Z,2.90
2022-12-28T01:46:34.425Z,2.50
2022-12-28T01:47:34.425Z,2.20
2022-12-28T01:48:34.429Z,2.90
2022-12-28T01:49:34.309Z,2.30
2022-12-28T01:50:34.303Z,2.90
2022-12-28T01:51:34.191Z,2.40
2022-12-28T01:52:34.192Z,2.50
2022-12-28T01:53:34.189Z,2.50
2022-12-28T01:54:34.060Z,2.30
2022-12-28T01:55:34.091Z,2.40
2022-12-28T01:56:33.949Z,2.20
2022-12-28T01:57:33.958Z,3.10
2022-12-28T01:58:33.948Z,2.40
2022-12-28T01:59:33.852Z,2.40
2022-12-28T02:00:33.825Z,2.50
2022-12-28T02:01:33.827Z,2.30
2022-12-28T02:02:33.969Z,2.40
2022-12-28T02:03:33.709Z,2.40
2022-12-28T02:04:33.600Z,2.40
2022-12-28T02:05:33.587Z,2.40
2022-12-28T02:06:33.467Z,2.20
2022-12-28T02:07:33.479Z,2.50
2022-12-28T02:08:33.488Z,2.30
2022-12-28T02:09:33.350Z,2.20
2022-12-28T02:10:42.760Z,2.30
2022-12-28T02:11:33.240Z,2.10
2022-12-28T02:12:33.287Z,2.10
2022-12-28T02:13:33.233Z,2.10
2022-12-28T02:14:33.117Z,2.30
2022-12-28T02:15:33.136Z,2.30
2022-12-28T02:16:33.063Z,2.10
2022-12-28T02:17:33.003Z,2.20
2022-12-28T02:18:33.002Z,2.00
2022-12-28T02:19:32.881Z,2.40
2022-12-28T02:20:32.887Z,2.20
2022-12-28T02:21:32.879Z,2.40
2022-12-28T02:22:32.759Z,2.30
2022-12-28T02:23:32.775Z,2.00
2022-12-28T02:24:32.644Z,2.40
2022-12-28T02:25:32.788Z,1.90
2022-12-28T02:26:32.643Z,2.20
2022-12-28T02:27:32.531Z,2.30
2022-12-28T02:28:32.534Z,2.50
2022-12-28T02:29:32.432Z,2.80
2022-12-28T02:30:32.435Z,2.30
2022-12-28T02:31:32.429Z,2.10
2022-12-28T02:32:32.296Z,2.20
2022-12-28T02:33:32.296Z,2.00
2022-12-28T02:34:32.180Z,2.20
2022-12-28T02:35:32.176Z,2.10
2022-12-28T02:36:32.171Z,2.50
2022-12-28T02:37:32.059Z,2.20
2022-12-28T02:38:32.058Z,2.00
2022-12-28T02:39:31.942Z,2.10
2022-12-28T02:40:31.940Z,2.20
2022-12-28T02:41:31.941Z,1.80
2022-12-28T02:42:31.825Z,2.40
2022-12-28T02:43:31.828Z,2.00
2022-12-28T02:44:31.828Z,2.10
2022-12-28T02:45:31.716Z,2.10
2022-12-28T02:46:31.804Z,2.10
2022-12-28T02:47:31.607Z,1.70
2022-12-28T02:48:31.615Z,2.10
2022-12-28T02:49:31.591Z,2.00
2022-12-28T02:50:31.608Z,1.80
2022-12-28T02:51:31.479Z,2.10
2022-12-28T02:52:31.357Z,1.90
2022-12-28T02:53:31.440Z,2.10
2022-12-28T02:54:31.359Z,1.80
2022-12-28T02:55:31.323Z,1.80
2022-12-28T02:56:31.240Z,2.00
2022-12-28T02:57:31.204Z,1.90
2022-12-28T02:58:31.209Z,2.00
2022-12-28T02:59:31.122Z,1.90
2022-12-28T03:00:31.090Z,1.90
2022-12-28T03:01:31.177Z,1.80
2022-12-28T03:02:31.147Z,1.50
2022-12-28T03:03:31.000Z,1.70
2022-12-28T03:04:30.973Z,2.00
2022-12-28T03:05:30.852Z,1.80
2022-12-28T03:06:30.851Z,1.80
2022-12-28T03:07:30.864Z,1.70
2022-12-28T03:08:30.973Z,1.60
2022-12-28T03:09:30.737Z,2.00
2022-12-28T03:10:30.632Z,2.00
2022-12-28T03:11:30.624Z,2.00
2022-12-28T03:12:30.620Z,1.90
2022-12-28T03:13:30.498Z,2.20
2022-12-28T03:14:30.635Z,1.90
2022-12-28T03:15:30.537Z,1.80
2022-12-28T03:16:30.388Z,2.10
2022-12-28T03:17:30.385Z,2.00
2022-12-28T03:18:30.268Z,1.90
2022-12-28T03:19:30.292Z,2.10
2022-12-28T03:20:30.153Z,2.10
2022-12-28T03:21:30.150Z,2.30
2022-12-28T03:22:30.160Z,1.90
2022-12-28T03:23:30.037Z,1.90
2022-12-28T03:24:30.041Z,2.10
2022-12-28T03:25:29.926Z,2.00
2022-12-28T03:26:29.931Z,1.80
2022-12-28T03:27:29.916Z,2.10
2022-12-28T03:28:29.805Z,2.10
2022-12-28T03:29:29.798Z,2.30
2022-12-28T03:30:29.945Z,2.10
2022-12-28T03:31:29.959Z,2.20
2022-12-28T03:32:29.803Z,2.10
2022-12-28T03:33:29.803Z,2.40
2022-12-28T03:34:29.683Z,1.90
2022-12-28T03:35:29.712Z,2.00
2022-12-28T03:36:29.685Z,2.20
2022-12-28T03:37:29.444Z,2.50
2022-12-28T03:38:29.451Z,2.30
2022-12-28T03:39:29.449Z,2.40
2022-12-28T03:40:29.212Z,2.10
2022-12-28T03:41:29.211Z,2.10
2022-12-28T03:42:29.092Z,2.10
2022-12-28T03:43:29.102Z,2.30
2022-12-28T03:44:29.108Z,2.10
2022-12-28T03:45:46.014Z,2.50
2022-12-28T03:46:29.034Z,2.40
2022-12-28T03:47:28.859Z,2.20
2022-12-28T03:48:28.855Z,2.40
2022-12-28T03:49:28.857Z,2.30
2022-12-28T03:50:28.744Z,2.40
2022-12-28T03:51:28.773Z,2.30
2022-12-28T03:52:28.622Z,2.20
2022-12-28T03:53:28.627Z,2.20
2022-12-28T03:54:28.629Z,2.40
2022-12-28T03:55:28.505Z,1.90
2022-12-28T03:56:29.345Z,2.30
2022-12-28T03:57:28.392Z,2.30
2022-12-28T03:58:28.391Z,2.10
2022-12-28T03:59:28.390Z,1.90
2022-12-28T04:00:28.278Z,2.20
2022-12-28T04:01:28.389Z,2.30
2022-12-28T04:02:28.298Z,2.50
2022-12-28T04:03:28.178Z,1.70
2022-12-28T04:04:28.157Z,2.40
2022-12-28T04:05:28.034Z,2.20
2022-12-28T04:06:28.046Z,2.10
2022-12-28T04:07:27.943Z,2.10
2022-12-28T04:08:27.919Z,2.20
2022-12-28T04:09:27.919Z,2.20
2022-12-28T04:10:27.801Z,2.00
2022-12-28T04:11:27.800Z,2.00
2022-12-28T04:12:27.680Z,2.10
2022-12-28T04:13:27.684Z,2.10
2022-12-28T04:14:27.682Z,2.30
2022-12-28T04:15:27.573Z,2.10
2022-12-28T04:16:27.564Z,1.90
2022-12-28T04:17:27.450Z,2.20
2022-12-28T04:18:27.451Z,2.10
2022-12-28T04:19:27.450Z,1.70
2022-12-28T04:20:27.264Z,2.00
2022-12-28T04:21:27.329Z,1.80
2022-12-28T04:22:27.209Z,2.10
2022-12-28T04:23:27.219Z,2.00
2022-12-28T04:24:27.151Z,1.80
2022-12-28T04:25:27.093Z,1.90
2022-12-28T04:26:27.040Z,1.90
2022-12-28T04:27:27.008Z,1.90
2022-12-28T04:28:26.911Z,2.00
2022-12-28T04:29:26.909Z,2.10
2022-12-28T04:30:26.801Z,1.90
2022-12-28T04:31:26.831Z,1.90
2022-12-28T04:32:26.799Z,2.30
2022-12-28T04:33:26.673Z,2.10
2022-12-28T04:34:26.697Z,1.90
2022-12-28T04:35:26.554Z,2.20
2022-12-28T04:36:26.580Z,1.80
2022-12-28T04:37:26.556Z,1.90
2022-12-28T04:38:26.438Z,1.90
2022-12-28T04:39:26.467Z,2.10
2022-12-28T04:40:26.314Z,2.30
2022-12-28T04:41:26.339Z,2.30
2022-12-28T04:42:26.369Z,1.90
2022-12-28T04:43:26.199Z,1.90
2022-12-28T04:44:26.200Z,1.80
2022-12-28T04:45:26.088Z,2.00
2022-12-28T04:46:26.120Z,2.00
2022-12-28T04:47:26.079Z,1.70
2022-12-28T04:48:25.965Z,2.20
2022-12-28T04:49:25.958Z,2.00
2022-12-28T04:50:25.838Z,1.90
2022-12-28T04:51:25.844Z,1.90
2022-12-28T04:52:25.843Z,1.70
2022-12-28T04:53:25.742Z,2.10
2022-12-28T04:54:25.721Z,2.40
2022-12-28T04:55:32.301Z,2.20
2022-12-28T04:56:25.606Z,2.10
2022-12-28T04:57:25.606Z,1.90
2022-12-28T04:58:25.485Z,2.20
2022-12-28T04:59:25.485Z,1.90
2022-12-28T05:00:25.555Z,2.10
2022-12-28T05:01:25.588Z,1.90
2022-12-28T05:02:25.459Z,2.00
2022-12-28T05:03:25.254Z,2.10
2022-12-28T05:04:25.249Z,2.10
2022-12-28T05:05:25.254Z,2.00
2022-12-28T05:06:25.139Z,2.00
2022-12-28T05:07:25.134Z,2.00
2022-12-28T05:08:25.018Z,2.30
2022-12-28T05:09:25.017Z,2.20
2022-12-28T05:10:26.343Z,1.80
2022-12-28T05:11:24.917Z,2.20
2022-12-28T05:12:24.903Z,2.00
2022-12-28T05:13:24.910Z,2.00
2022-12-28T05:14:24.785Z,2.10
2022-12-28T05:15:24.781Z,1.80
2022-12-28T05:16:24.789Z,1.80
2022-12-28T05:17:24.665Z,2.20
2022-12-28T05:18:24.673Z,2.40
2022-12-28T05:19:24.548Z,2.00
2022-12-28T05:20:24.549Z,2.10
2022-12-28T05:21:24.479Z,2.20
2022-12-28T05:22:24.430Z,2.20
2022-12-28T05:23:24.429Z,2.30
2022-12-28T05:24:24.312Z,1.90
2022-12-28T05:25:24.310Z,2.00
2022-12-28T05:26:24.308Z,2.00
2022-12-28T05:27:24.217Z,2.00
2022-12-28T05:28:24.205Z,2.00
2022-12-28T05:29:24.082Z,2.10
2022-12-28T05:30:24.080Z,2.20
2022-12-28T05:31:24.169Z,2.20
2022-12-28T05:32:23.966Z,2.50
2022-12-28T05:33:23.960Z,2.20
2022-12-28T05:34:23.845Z,2.20
2022-12-28T05:35:23.844Z,2.40
2022-12-28T05:36:23.847Z,2.10
2022-12-28T05:37:23.725Z,2.30
2022-12-28T05:38:23.811Z,2.00
2022-12-28T05:39:23.722Z,2.00
2022-12-28T05:40:23.697Z,2.00
2022-12-28T05:41:23.615Z,2.00
2022-12-28T05:42:23.577Z,2.20
2022-12-28T05:43:23.605Z,2.30
2022-12-28T05:44:23.489Z,2.10
2022-12-28T05:45:23.472Z,2.30
2022-12-28T05:46:23.527Z,2.20
2022-12-28T05:47:23.341Z,2.20
2022-12-28T05:48:23.355Z,2.10
2022-12-28T05:49:23.345Z,2.00
2022-12-28T05:50:23.225Z,2.20
2022-12-28T05:51:23.234Z,2.10
2022-12-28T05:52:23.233Z,2.30
2022-12-28T05:53:23.106Z,2.50
2022-12-28T05:54:23.109Z,2.40
2022-12-28T05:55:22.988Z,2.20
2022-12-28T05:56:22.990Z,2.10
2022-12-28T05:57:22.990Z,2.30
2022-12-28T05:58:22.877Z,2.00
2022-12-28T05:59:22.897Z,2.10
2022-12-28T06:00:22.754Z,2.20
2022-12-28T06:01:22.796Z,2.10
2022-12-28T06:02:24.831Z,2.30
2022-12-28T06:03:23.169Z,2.60
2022-12-28T06:04:22.638Z,2.30
2022-12-28T06:05:22.639Z,2.40
2022-12-28T06:06:22.524Z,2.50
2022-12-28T06:07:22.521Z,2.50
2022-12-28T06:08:22.864Z,2.20
2022-12-28T06:09:22.534Z,2.20
2022-12-28T06:10:22.406Z,2.70
2022-12-28T06:11:22.533Z,3.00
2022-12-28T06:12:22.288Z,3.00
2022-12-28T06:13:22.288Z,2.30
2022-12-28T06:14:22.408Z,2.40
2022-12-28T06:15:22.321Z,2.40
2022-12-28T06:16:22.323Z,2.50
2022-12-28T06:17:22.175Z,2.20
2022-12-28T06:18:22.175Z,2.30
2022-12-28T06:19:22.174Z,2.90
2022-12-28T06:20:22.059Z,2.50
2022-12-28T06:21:22.055Z,2.70
2022-12-28T06:22:21.820Z,2.50
2022-12-28T10:32:22.333Z,0.50
2022-12-28T10:33:22.562Z,1.00
2022-12-28T10:34:22.345Z,1.20
2022-12-28T10:35:22.114Z,1.10
2022-12-28T10:36:23.703Z,1.40
2022-12-28T10:37:22.202Z,1.30
2022-12-28T10:38:22.200Z,1.10
2022-12-28T10:39:22.333Z,1.10
2022-12-28T10:40:22.270Z,1.10
2022-12-28T10:41:21.885Z,1.70
2022-12-28T10:42:21.755Z,1.50
2022-12-28T10:43:21.759Z,1.80
2022-12-28T10:44:39.051Z,1.20
2022-12-28T10:45:21.857Z,1.10
2022-12-28T10:46:21.681Z,1.70
2022-12-28T10:47:21.774Z,4.90
2022-12-28T10:48:21.565Z,0.80
2022-12-28T10:49:21.899Z,1.20
2022-12-28T10:50:37.189Z,1.10
2022-12-28T10:51:21.406Z,1.00
2022-12-28T10:52:21.302Z,1.00
2022-12-28T10:53:21.289Z,1.00
2022-12-28T10:54:28.412Z,1.10
2022-12-28T10:55:21.171Z,1.00
2022-12-28T10:56:21.171Z,1.00
2022-12-28T10:57:21.143Z,1.00
2022-12-28T10:58:30.658Z,1.00
2022-12-28T10:59:21.065Z,0.90
2022-12-28T11:00:20.934Z,0.90
2022-12-28T11:01:21.398Z,1.00
2022-12-28T11:02:21.254Z,1.10
2022-12-28T11:03:20.928Z,1.10
2022-12-28T11:04:20.844Z,0.80
2022-12-28T11:05:20.699Z,1.20
2022-12-28T11:06:26.781Z,1.30
2022-12-28T11:07:20.696Z,1.20
2022-12-28T11:08:20.587Z,1.00
2022-12-28T11:10:20.580Z,1.20
2022-12-28T11:11:20.556Z,1.10
2022-12-28T11:12:20.461Z,1.40
2022-12-28T11:13:22.152Z,1.10
2022-12-28T11:14:20.445Z,1.00
2022-12-28T11:15:20.347Z,1.00
2022-12-28T11:16:20.352Z,1.00
2022-12-28T11:17:20.328Z,1.20
2022-12-28T11:18:20.317Z,0.90
2022-12-28T11:19:20.208Z,0.90
2022-12-28T11:20:20.227Z,1.30
2022-12-28T11:21:20.082Z,1.10
2022-12-28T11:22:20.083Z,1.10
2022-12-28T11:23:20.083Z,0.80
2022-12-28T11:24:20.217Z,1.10
2022-12-28T11:25:19.965Z,0.90
2022-12-28T11:26:19.993Z,1.40
2022-12-28T11:27:19.852Z,0.90
2022-12-28T11:28:19.848Z,1.10
2022-12-28T11:29:20.347Z,1.10
2022-12-28T11:30:19.822Z,1.00
2022-12-28T11:31:19.793Z,1.00
2022-12-28T11:32:19.616Z,1.20
2022-12-28T11:33:19.616Z,0.90
2022-12-28T11:34:19.614Z,1.10
2022-12-28T11:35:19.740Z,1.20
2022-12-28T11:36:19.525Z,1.10
2022-12-28T11:37:19.380Z,1.10
2022-12-28T11:38:19.380Z,1.10
2022-12-28T11:39:19.505Z,1.30
2022-12-28T11:40:19.531Z,1.00
2022-12-28T11:41:19.281Z,1.10
2022-12-28T11:42:38.541Z,1.10
2022-12-28T11:43:19.392Z,1.10
2022-12-28T11:44:19.268Z,1.10
2022-12-28T11:45:19.265Z,1.00
2022-12-28T11:46:19.271Z,1.10
2022-12-28T11:47:22.394Z,1.30
2022-12-28T11:48:19.147Z,1.30
2022-12-28T11:49:19.036Z,1.20
2022-12-28T11:50:18.916Z,1.00
2022-12-28T11:51:19.032Z,1.30
2022-12-28T11:52:18.697Z,1.10
2022-12-28T11:53:18.680Z,1.20
2022-12-28T11:54:18.679Z,1.10
2022-12-28T11:55:18.559Z,1.30
2022-12-28T11:56:18.559Z,1.00
2022-12-28T11:57:18.441Z,1.00
2022-12-28T11:58:18.440Z,1.00
2022-12-28T11:59:18.441Z,1.30
2022-12-28T12:00:22.259Z,1.30
2022-12-28T12:01:18.336Z,1.20
2022-12-28T12:02:18.329Z,1.00
2022-12-28T12:03:18.235Z,1.00
2022-12-28T12:04:18.202Z,1.10
2022-12-28T12:05:18.091Z,1.40
2022-12-28T12:06:18.094Z,1.40
2022-12-28T12:07:18.089Z,1.30
2022-12-28T12:08:17.998Z,1.10
2022-12-28T12:09:17.974Z,1.30
2022-12-28T12:10:17.976Z,1.30
2022-12-28T12:11:17.855Z,1.20
2022-12-28T12:12:18.400Z,1.10
2022-12-28T12:13:17.734Z,1.40
2022-12-28T12:14:17.741Z,1.10
2022-12-28T12:15:17.763Z,1.20
2022-12-28T12:16:17.690Z,1.00
2022-12-28T12:17:17.619Z,1.50
2022-12-28T12:18:17.622Z,1.00
2022-12-28T12:19:17.503Z,1.50
2022-12-28T12:20:17.501Z,1.30
2022-12-28T12:21:17.392Z,1.10
2022-12-28T12:22:17.384Z,1.10
2022-12-28T12:23:17.385Z,1.20
2022-12-28T12:24:17.293Z,1.10
2022-12-28T12:25:17.274Z,1.50
2022-12-28T12:26:17.181Z,1.10
2022-12-28T12:27:17.148Z,1.30
2022-12-28T12:28:17.151Z,1.40
2022-12-28T12:29:17.033Z,1.80
2022-12-28T12:30:17.044Z,1.30
2022-12-28T12:31:17.124Z,1.10
2022-12-28T12:32:16.913Z,1.30
2022-12-28T12:33:16.916Z,1.20
2022-12-28T12:34:19.806Z,0.90
2022-12-28T12:35:16.813Z,1.40
2022-12-28T12:36:16.798Z,1.00
2022-12-28T12:37:16.614Z,1.20
2022-12-28T12:38:16.682Z,1.20
2022-12-28T12:39:16.620Z,1.30
2022-12-28T12:40:16.520Z,1.30
2022-12-28T12:41:16.503Z,1.60
2022-12-28T12:42:16.380Z,1.20
2022-12-28T12:43:16.382Z,1.20
2022-12-28T12:44:16.378Z,1.10
2022-12-28T12:45:16.264Z,1.20
2022-12-28T12:46:16.358Z,1.20
2022-12-28T12:47:16.329Z,1.50
2022-12-28T12:48:16.137Z,1.40
2022-12-28T12:49:16.141Z,1.60
2022-12-28T12:50:16.116Z,1.50
2022-12-28T12:51:16.017Z,1.60
2022-12-28T12:52:16.030Z,1.40
2022-12-28T12:53:16.627Z,1.40
2022-12-28T12:54:17.705Z,1.20
2022-12-28T12:55:15.900Z,1.60
2022-12-28T12:56:15.810Z,1.50
2022-12-28T12:57:15.780Z,1.60
2022-12-28T12:58:15.756Z,1.60
2022-12-28T12:59:15.662Z,1.90
2022-12-28T13:00:15.676Z,1.60
2022-12-28T13:01:15.584Z,1.90
2022-12-28T13:02:15.766Z,2.00
2022-12-28T13:03:15.641Z,1.60
2022-12-28T13:04:15.432Z,1.80
2022-12-28T13:05:15.438Z,1.30
2022-12-28T13:06:15.306Z,1.20
2022-12-28T13:07:15.305Z,0.90
2022-12-28T13:08:15.331Z,1.30
2022-12-28T13:09:15.187Z,1.30
2022-12-28T13:10:15.187Z,1.20
2022-12-28T13:11:15.192Z,1.20
2022-12-28T13:12:15.093Z,1.50
2022-12-28T13:13:15.071Z,1.50
2022-12-28T13:14:14.953Z,1.40
2022-12-28T13:15:15.043Z,1.00
2022-12-28T13:16:14.989Z,1.30
2022-12-28T13:17:14.845Z,1.30
2022-12-28T13:19:14.855Z,1.20
2022-12-28T13:23:53.569Z,1.10
2022-12-28T13:24:51.327Z,1.10
2022-12-28T13:25:51.333Z,1.30
2022-12-28T13:26:51.335Z,1.60
2022-12-28T13:27:51.223Z,1.10
2022-12-28T13:28:51.215Z,1.60
2022-12-28T13:29:51.213Z,1.40
2022-12-28T13:30:51.119Z,1.70
2022-12-28T13:31:51.091Z,1.50
2022-12-28T13:32:51.068Z,1.40
2022-12-28T13:33:50.980Z,1.40
2022-12-28T13:34:50.991Z,1.40
2022-12-28T13:35:50.858Z,1.40
2022-12-28T13:36:50.862Z,1.30
2022-12-28T13:37:50.828Z,1.40
2022-12-28T13:39:50.748Z,1.50
2022-12-28T13:40:50.624Z,1.20
2022-12-28T13:41:50.620Z,1.20
2022-12-28T13:42:50.618Z,1.10
2022-12-28T13:43:50.529Z,1.40
2022-12-28T13:44:50.503Z,1.40
2022-12-28T13:45:51.195Z,1.50
2022-12-28T13:46:50.390Z,1.50
2022-12-28T13:47:50.492Z,1.40
2022-12-28T13:48:50.376Z,1.30
2022-12-28T13:50:50.239Z,1.40
2022-12-28T13:51:53.539Z,1.40
2022-12-28T13:52:50.150Z,1.30
2022-12-28T13:53:50.124Z,1.60
2022-12-28T13:54:50.131Z,1.40
2022-12-28T13:55:50.011Z,1.20
2022-12-28T13:56:50.049Z,1.50
2022-12-28T13:57:55.780Z,1.30
2022-12-28T13:58:49.889Z,1.30
2022-12-28T14:00:33.377Z,1.10
2022-12-28T14:01:33.447Z,1.60
2022-12-28T14:02:33.382Z,1.60
2022-12-28T14:03:38.968Z,1.30
2022-12-28T14:05:33.264Z,1.30
2022-12-28T14:06:33.212Z,1.30
2022-12-28T14:07:33.101Z,1.10
2022-12-28T14:08:33.102Z,1.20
2022-12-28T14:09:32.976Z,1.40
2022-12-28T14:10:32.977Z,1.30
2022-12-28T14:11:32.976Z,1.30
2022-12-28T14:12:32.857Z,1.50
2022-12-28T14:13:32.859Z,1.20
2022-12-28T14:14:32.740Z,1.10
2022-12-28T14:15:40.614Z,1.40
2022-12-28T14:16:32.809Z,1.30
2022-12-28T14:17:32.627Z,1.50
2022-12-28T14:18:32.630Z,1.60
2022-12-28T14:19:32.505Z,1.50
2022-12-28T14:20:32.506Z,1.30
2022-12-28T14:21:32.510Z,1.60
2022-12-28T14:22:32.384Z,1.40
2022-12-28T14:23:32.391Z,1.80
2022-12-28T14:24:32.277Z,1.40
2022-12-28T14:25:32.391Z,1.50
2022-12-28T14:26:32.276Z,1.10
2022-12-28T14:27:35.050Z,1.50
2022-12-28T14:28:32.279Z,1.70
2022-12-28T14:29:32.281Z,1.60
2022-12-28T14:30:32.328Z,1.90
2022-12-28T14:31:32.378Z,1.90
2022-12-28T14:32:34.189Z,1.40
2022-12-28T14:33:32.049Z,1.50
2022-12-28T14:34:32.060Z,1.50
2022-12-28T14:35:32.041Z,1.60
2022-12-28T14:36:31.924Z,1.50
2022-12-28T14:37:31.812Z,1.50
2022-12-28T14:38:31.568Z,1.60
2022-12-28T14:39:31.581Z,1.70
2022-12-28T14:40:31.577Z,1.50
2022-12-28T14:41:31.452Z,1.70
2022-12-28T14:42:31.449Z,2.00
2022-12-28T14:43:31.452Z,1.70
2022-12-28T14:44:31.327Z,1.80
2022-12-28T14:45:31.333Z,1.60
2022-12-28T14:46:31.307Z,1.60
2022-12-28T14:47:31.215Z,1.40
2022-12-28T14:48:31.237Z,1.80
2022-12-28T14:49:31.121Z,1.60
2022-12-28T14:50:31.107Z,1.80
2022-12-28T14:51:30.984Z,1.60
2022-12-28T14:52:30.989Z,1.60
2022-12-28T14:53:31.327Z,1.70
2022-12-28T14:54:30.861Z,1.60
2022-12-28T14:55:30.868Z,1.60
2022-12-28T14:56:30.753Z,1.80
2022-12-28T14:57:30.742Z,1.60
2022-12-28T14:58:30.746Z,1.90
2022-12-28T14:59:30.638Z,1.50
2022-12-28T15:00:30.629Z,1.60
2022-12-28T15:01:30.644Z,1.80
2022-12-28T15:02:30.653Z,1.50
2022-12-28T15:03:30.628Z,1.80
2022-12-28T15:04:30.419Z,1.60
2022-12-28T15:05:30.395Z,1.70
2022-12-28T15:06:30.276Z,1.70
2022-12-28T15:07:30.272Z,2.10
2022-12-28T15:08:30.293Z,1.60
2022-12-28T15:09:30.163Z,1.80
2022-12-28T15:10:30.156Z,1.60
2022-12-28T15:11:30.037Z,1.80
2022-12-28T15:12:30.043Z,1.50
2022-12-28T15:13:30.038Z,1.70
2022-12-28T15:14:29.921Z,2.00
2022-12-28T15:15:29.930Z,2.60
2022-12-28T15:16:29.856Z,2.30
2022-12-28T15:17:33.605Z,2.40
2022-12-28T15:18:29.803Z,2.20
2022-12-28T15:19:29.704Z,2.00
2022-12-28T15:20:29.646Z,2.20
2022-12-28T15:21:29.565Z,2.20
2022-12-28T15:22:29.504Z,1.80
2022-12-28T15:23:29.567Z,1.60
2022-12-28T15:24:33.742Z,1.90
2022-12-28T15:25:29.451Z,1.90
2022-12-28T15:26:29.271Z,2.20
2022-12-28T15:27:29.333Z,2.00
2022-12-28T15:28:29.267Z,2.10
2022-12-28T15:29:47.900Z,1.90
2022-12-28T15:30:29.547Z,2.10
2022-12-28T15:31:29.131Z,1.60
2022-12-28T15:32:29.028Z,1.80
2022-12-28T15:37:05.629Z,1.60
2022-12-28T15:38:05.514Z,1.60
2022-12-28T15:39:05.512Z,1.60
2022-12-28T15:40:05.392Z,1.50
2022-12-28T15:41:05.389Z,1.70
2022-12-28T15:42:05.393Z,1.60
2022-12-28T15:43:05.274Z,1.60
2022-12-28T15:44:05.287Z,1.80
2022-12-28T15:45:05.152Z,1.80
2022-12-28T15:46:05.163Z,1.80
2022-12-28T15:47:05.274Z,1.50
2022-12-28T15:48:05.132Z,1.80
2022-12-28T15:49:05.037Z,1.60
2022-12-28T15:50:04.919Z,1.80
2022-12-28T15:51:04.918Z,1.40
2022-12-28T15:52:04.914Z,1.70
2022-12-28T15:53:04.814Z,1.40
2022-12-28T15:54:04.802Z,1.50
2022-12-28T15:55:04.682Z,1.50
2022-12-28T15:56:04.683Z,1.80
2022-12-28T15:57:04.695Z,1.80
2022-12-28T15:58:04.559Z,1.70
2022-12-28T15:59:04.572Z,1.70
2022-12-28T16:00:04.447Z,1.90
2022-12-28T16:01:04.673Z,1.60
2022-12-28T16:02:04.726Z,1.80
2022-12-28T16:03:04.474Z,1.70
2022-12-28T16:04:04.332Z,2.00
2022-12-28T16:05:04.205Z,1.60
2022-12-28T16:06:04.217Z,1.80
2022-12-28T16:07:04.204Z,1.70
2022-12-28T16:08:04.088Z,2.00
2022-12-28T16:09:04.137Z,1.90
2022-12-28T16:10:04.065Z,2.00
2022-12-28T16:11:03.976Z,1.70
2022-12-28T16:12:03.973Z,1.60
2022-12-28T16:13:03.861Z,1.70
2022-12-28T16:14:03.863Z,1.80
2022-12-28T16:15:03.869Z,1.80
2022-12-28T16:16:03.816Z,1.80
2022-12-28T16:17:03.755Z,1.70
2022-12-28T16:18:03.618Z,1.70
2022-12-28T16:19:03.622Z,1.70
2022-12-28T16:20:03.650Z,1.70
2022-12-28T16:21:03.506Z,1.50
2022-12-28T16:22:03.507Z,1.70
2022-12-28T16:23:03.391Z,2.00
2022-12-28T16:24:03.405Z,1.50
2022-12-28T16:25:03.403Z,1.80
2022-12-28T16:26:03.281Z,1.60
2022-12-28T16:27:03.291Z,1.60
2022-12-28T16:28:03.154Z,1.70
2022-12-28T16:29:03.149Z,1.60
2022-12-28T16:30:03.218Z,1.60
2022-12-28T16:31:03.043Z,1.80
2022-12-28T16:32:03.119Z,1.80
2022-12-28T16:33:03.003Z,1.70
2022-12-28T16:34:02.918Z,1.80
2022-12-28T16:35:02.911Z,1.50
2022-12-28T16:36:02.803Z,2.00
2022-12-28T16:37:02.804Z,1.60
2022-12-28T16:38:02.767Z,1.80
2022-12-28T16:39:02.682Z,1.70
2022-12-28T16:40:02.747Z,1.80
2022-12-28T16:41:02.597Z,1.60
2022-12-28T16:42:02.653Z,1.40
2022-12-28T16:43:02.562Z,1.70
2022-12-28T16:44:02.532Z,1.60
2022-12-28T16:45:02.532Z,1.80
2022-12-28T16:46:02.487Z,1.90
2022-12-28T16:47:02.416Z,1.70
2022-12-28T16:48:02.421Z,1.60
2022-12-28T16:49:02.311Z,1.70
2022-12-28T16:50:02.302Z,2.00
2022-12-28T16:51:02.182Z,1.70
2022-12-28T16:52:02.182Z,2.00
2022-12-28T16:53:02.187Z,1.70
2022-12-28T16:54:02.068Z,1.60
2022-12-28T16:55:02.065Z,1.40
2022-12-28T16:56:01.975Z,1.60
2022-12-28T16:57:01.992Z,1.80
2022-12-28T16:58:01.948Z,1.70
2022-12-28T16:59:01.838Z,1.90
2022-12-28T17:00:01.851Z,1.60
2022-12-28T17:01:01.843Z,1.70
2022-12-28T17:02:02.068Z,1.60
2022-12-28T17:03:01.925Z,1.60
2022-12-28T17:04:04.170Z,1.70
2022-12-28T17:05:01.603Z,1.70
2022-12-28T17:06:01.637Z,1.60
2022-12-28T17:07:01.481Z,1.90
2022-12-28T17:08:01.475Z,1.90
2022-12-28T17:09:01.378Z,2.00
2022-12-28T17:10:01.370Z,1.90
2022-12-28T17:11:01.365Z,2.00
2022-12-28T17:12:01.240Z,1.90
2022-12-28T17:13:01.278Z,1.90
2022-12-28T17:14:01.365Z,2.00
2022-12-28T17:15:05.129Z,1.60
2022-12-28T17:16:01.243Z,1.80
2022-12-28T17:17:01.328Z,1.80
2022-12-28T17:18:01.125Z,1.70
2022-12-28T17:19:01.127Z,2.10
2022-12-28T17:20:01.147Z,1.80
2022-12-28T17:21:06.526Z,1.60
2022-12-28T17:22:00.893Z,1.80
2022-12-28T17:23:00.672Z,1.80
2022-12-28T17:24:00.666Z,1.90
2022-12-28T17:25:00.655Z,1.70
2022-12-28T17:26:00.534Z,1.90
2022-12-28T17:27:06.915Z,2.20
2022-12-28T17:28:00.426Z,1.60
2022-12-28T17:30:00.443Z,1.90
2022-12-28T17:31:00.309Z,1.80
2022-12-28T17:32:00.333Z,1.80
2022-12-28T17:33:00.194Z,1.90
2022-12-28T17:34:00.184Z,1.70
2022-12-28T17:35:00.220Z,1.90
2022-12-28T17:36:00.099Z,2.00
2022-12-28T17:37:00.129Z,2.00
2022-12-28T17:37:59.950Z,1.90
2022-12-28T17:38:59.957Z,1.70
2022-12-28T17:39:59.948Z,2.30
2022-12-28T17:40:59.834Z,2.00
2022-12-28T17:41:59.831Z,1.90
2022-12-28T17:42:59.713Z,1.80